»·PEaware :: AAL588 KPHX-KSJC

AAL588 :: KPHX-KSJC

FLIGHT INFORMATION

Flight Status: Arrived
Operator:
American Airlines
More flights by this operator :: More flights under this callsign
Pilot: Alex Silvestri (7186)
Aircraft: AIRBUS A320
(A320)
More flights by this aircraft type
Origin: KPHX Phoenix Sky Harbor Intl
United States
Destination: KSJC Mineta San Jose Intl
United States
More flights between these airports :: More routes between these airports
Route: MAYSA5 SISIE DOVEE BTY RUSME RAZRR4
File this flight plan on PilotEdge
Remarks: PBN / A1B1C1D1O1S1 DOF / 170614 REG / N521JB EET / KZLA0020 KZOA0054 OPR / AAL RMK / TCAS SIMBRIEF
Altitude:
(Current/Filed)
34,000ft
Speed:
(Current/Filed)
447kts
Departed: 14-Jun-17 08:54 AM
Arrived: 14-Jun-17 10:33 AM
Distance/Time
Traveled:
539nm/1:39
Distance/Time
To Go:
Arrived

Flight Plot

Page will automatically refresh every two minutes.

Flight plan parsing failed; only flown route is shown


Map Options




Map Legend


Flown Route
Filed Route
Departure Airport
Arrival Airport
Navaid (VOR, NDB)
Fix

Horizontal Profiles

Position Reports

Time Latitude Longitude Heading Altitude Ground
Speed
14-Jun-17 08:24 33.437757 -111.997381 88 1149ft 0kts
14-Jun-17 08:25 33.437757 -111.997381 88 1149ft 0kts
14-Jun-17 08:26 33.437757 -111.997381 88 1149ft 0kts
14-Jun-17 08:27 33.437757 -111.997381 88 1149ft 0kts
14-Jun-17 08:28 33.437757 -111.997381 88 1149ft 0kts
14-Jun-17 08:29 33.437757 -111.997381 88 1149ft 0kts
14-Jun-17 08:30 33.437757 -111.997381 88 1149ft 0kts
14-Jun-17 08:31 33.437757 -111.997381 88 1149ft 0kts
14-Jun-17 08:32 33.437757 -111.997381 88 1149ft 0kts
14-Jun-17 08:33 33.437757 -111.997381 88 1149ft 0kts
14-Jun-17 08:34 33.437757 -111.997381 88 1149ft 0kts
14-Jun-17 08:35 33.437757 -111.997381 88 1149ft 0kts
14-Jun-17 08:36 33.437757 -111.997381 88 1149ft 0kts
14-Jun-17 08:37 33.437757 -111.997381 88 1149ft 0kts
14-Jun-17 08:38 33.437757 -111.997381 88 1149ft 0kts
14-Jun-17 08:39 33.437757 -111.997381 88 1149ft 0kts
14-Jun-17 08:40 33.437757 -111.997381 88 1149ft 0kts
14-Jun-17 08:41 33.437757 -111.997381 88 1149ft 0kts
14-Jun-17 08:42 33.437757 -111.997381 88 1149ft 0kts
14-Jun-17 08:43 33.437757 -111.997381 88 1149ft 0kts
14-Jun-17 08:44 33.437757 -111.997381 88 1149ft 0kts
14-Jun-17 08:45 33.437757 -111.997381 88 1149ft 0kts
14-Jun-17 08:46 33.437581 -111.997954 43 1149ft 0kts
14-Jun-17 08:47 33.437583 -111.997953 43 1149ft 0kts
14-Jun-17 08:48 33.437584 -111.997951 43 1149ft 0kts
14-Jun-17 08:49 33.438407 -111.997795 0 1149ft 0kts
14-Jun-17 08:50 33.438956 -111.997912 319 1149ft 9kts
14-Jun-17 08:51 33.439067 -112.003597 268 1149ft 22kts
14-Jun-17 08:52 33.438988 -112.010728 271 1149ft 9kts
14-Jun-17 08:53 33.439728 -112.016063 269 1149ft 23kts
14-Jun-17 08:54 33.439710 -112.023399 269 1149ft 21kts
14-Jun-17 08:55 33.439813 -112.029547 314 1149ft 8kts
14-Jun-17 08:56 33.440850 -112.017085 90 1149ft 131kts
14-Jun-17 08:57 33.439286 -111.963173 92 3110ft 191kts
14-Jun-17 08:58 33.436725 -111.883454 80 5356ft 268kts
14-Jun-17 08:59 33.496965 -111.840582 1 8799ft 293kts
14-Jun-17 09:00 33.583726 -111.838074 359 11464ft 339kts
14-Jun-17 09:01 33.681223 -111.842082 349 14553ft 360kts
14-Jun-17 09:02 33.764577 -111.901850 304 17382ft 365kts
14-Jun-17 09:03 33.825444 -112.001323 304 20136ft 374kts
14-Jun-17 09:04 33.887805 -112.103502 303 22532ft 384kts
14-Jun-17 09:05 33.952067 -112.209000 303 24615ft 394kts
14-Jun-17 09:06 34.017496 -112.316544 301 26491ft 402kts
14-Jun-17 09:07 34.100475 -112.408757 315 28358ft 411kts
14-Jun-17 09:08 34.189717 -112.497370 313 29854ft 417kts
14-Jun-17 09:09 34.279696 -112.587781 313 31059ft 425kts
14-Jun-17 09:10 34.371440 -112.680382 313 32268ft 432kts
14-Jun-17 09:11 34.463331 -112.773324 313 33724ft 429kts
14-Jun-17 09:12 34.554232 -112.865643 312 34129ft 421kts
14-Jun-17 09:14 34.641245 -112.959868 310 34118ft 419kts
14-Jun-17 09:15 34.727726 -113.054777 310 34145ft 419kts
14-Jun-17 09:16 34.814552 -113.149974 310 34135ft 419kts
14-Jun-17 09:17 34.901035 -113.244951 310 34123ft 419kts
14-Jun-17 09:18 34.982480 -113.344532 296 34110ft 407kts
14-Jun-17 09:19 35.027121 -113.469073 286 34097ft 399kts
14-Jun-17 09:20 35.067847 -113.594910 286 34088ft 399kts
14-Jun-17 09:21 35.108464 -113.721013 286 34085ft 400kts
14-Jun-17 09:22 35.149141 -113.847859 286 34086ft 400kts
14-Jun-17 09:23 35.189526 -113.974354 286 34085ft 400kts
14-Jun-17 09:24 35.229812 -114.101103 286 34077ft 400kts
14-Jun-17 09:25 35.270113 -114.228406 286 34042ft 400kts
14-Jun-17 09:26 35.310145 -114.355415 286 33998ft 400kts
14-Jun-17 09:27 35.350086 -114.482646 286 33973ft 401kts
14-Jun-17 09:28 35.390032 -114.610503 285 33951ft 401kts
14-Jun-17 09:29 35.429697 -114.738012 285 33961ft 401kts
14-Jun-17 09:30 35.488012 -114.855864 304 33979ft 414kts
14-Jun-17 09:31 35.563917 -114.963013 304 34010ft 415kts
14-Jun-17 09:32 35.639751 -115.069701 304 34023ft 415kts
14-Jun-17 09:33 35.715667 -115.176793 304 34029ft 416kts
14-Jun-17 09:34 35.791808 -115.284511 304 34042ft 416kts
14-Jun-17 09:35 35.867555 -115.392031 304 34044ft 416kts
14-Jun-17 09:36 35.943186 -115.499736 304 34045ft 416kts
14-Jun-17 09:37 36.018942 -115.607968 304 34035ft 415kts
14-Jun-17 09:38 36.094320 -115.716016 304 34042ft 415kts
14-Jun-17 09:38 36.156769 -115.805803 304 34052ft 415kts
14-Jun-17 09:40 36.244943 -115.932980 304 34056ft 415kts
14-Jun-17 09:41 36.319666 -116.041138 304 34060ft 415kts
14-Jun-17 09:42 36.394805 -116.150260 304 34064ft 414kts
14-Jun-17 09:42 36.457227 -116.241183 303 34066ft 414kts
14-Jun-17 09:44 36.544121 -116.368162 303 34067ft 413kts
14-Jun-17 09:45 36.618444 -116.477174 304 34072ft 413kts
14-Jun-17 09:46 36.692856 -116.586652 303 34080ft 413kts
14-Jun-17 09:46 36.754453 -116.677567 303 34085ft 412kts
14-Jun-17 09:48 36.846780 -116.798975 312 34095ft 419kts
14-Jun-17 09:48 36.919916 -116.879121 312 34104ft 418kts
14-Jun-17 09:49 37.007119 -116.975191 311 34115ft 418kts
14-Jun-17 09:50 37.094105 -117.071430 311 34128ft 417kts
14-Jun-17 09:51 37.180813 -117.167716 311 34136ft 417kts
14-Jun-17 09:52 37.267587 -117.264403 311 34146ft 415kts
14-Jun-17 09:53 37.353965 -117.360988 311 34153ft 415kts
14-Jun-17 09:54 37.440054 -117.457530 311 34186ft 415kts
14-Jun-17 09:55 37.489030 -117.576777 264 34193ft 390kts
14-Jun-17 09:56 37.478946 -117.712629 263 34184ft 391kts
14-Jun-17 09:57 37.468395 -117.848520 263 34177ft 390kts
14-Jun-17 09:58 37.457568 -117.984766 263 34169ft 390kts
14-Jun-17 09:59 37.446539 -118.121031 263 34159ft 392kts
14-Jun-17 10:00 37.435361 -118.257362 263 34149ft 393kts
14-Jun-17 10:01 37.423973 -118.394430 263 34142ft 393kts
14-Jun-17 10:02 37.412414 -118.531323 263 34159ft 394kts
14-Jun-17 10:03 37.400676 -118.668476 262 34203ft 395kts
14-Jun-17 10:04 37.387860 -118.805974 259 34237ft 396kts
14-Jun-17 10:05 37.368699 -118.942237 259 34242ft 397kts
14-Jun-17 10:06 37.349934 -119.079068 259 34245ft 398kts
14-Jun-17 10:07 37.331110 -119.216732 259 34206ft 399kts
14-Jun-17 10:08 37.312185 -119.354296 259 34167ft 401kts
14-Jun-17 10:09 37.292998 -119.492744 259 34125ft 403kts
14-Jun-17 10:10 37.273625 -119.631087 260 31541ft 397kts
14-Jun-17 10:11 37.254590 -119.765411 260 29170ft 384kts
14-Jun-17 10:12 37.236043 -119.895273 260 26903ft 369kts
14-Jun-17 10:13 37.220204 -120.020878 262 25211ft 367kts
14-Jun-17 10:14 37.206650 -120.147673 262 22746ft 371kts
14-Jun-17 10:15 37.193553 -120.270114 262 21775ft 349kts
14-Jun-17 10:16 37.180522 -120.390378 262 20843ft 346kts
14-Jun-17 10:17 37.167353 -120.508277 262 19541ft 337kts
14-Jun-17 10:18 37.154473 -120.623925 262 18352ft 333kts
14-Jun-17 10:19 37.141632 -120.738363 262 17129ft 328kts
14-Jun-17 10:20 37.129014 -120.851041 262 15613ft 324kts
14-Jun-17 10:21 37.116690 -120.962060 262 14157ft 320kts
14-Jun-17 10:22 37.104216 -121.073700 262 12875ft 336kts
14-Jun-17 10:23 37.104956 -121.185792 278 11184ft 312kts
14-Jun-17 10:24 37.116682 -121.288642 278 9827ft 287kts
14-Jun-17 10:25 37.127963 -121.387622 278 8474ft 284kts
14-Jun-17 10:26 37.138925 -121.484599 279 7134ft 278kts
14-Jun-17 10:27 37.149589 -121.579667 279 5807ft 273kts
14-Jun-17 10:28 37.159413 -121.669332 279 5006ft 229kts
14-Jun-17 10:29 37.190334 -121.741229 319 4449ft 234kts
14-Jun-17 10:30 37.236390 -121.791716 319 3162ft 200kts
14-Jun-17 10:31 37.272245 -121.830914 319 2196ft 137kts
14-Jun-17 10:32 37.300676 -121.861996 319 1510ft 134kts
14-Jun-17 10:33 37.329387 -121.893387 319 797ft 138kts
14-Jun-17 10:34 37.358368 -121.925152 318 82ft 135kts
14-Jun-17 10:35 37.367458 -121.934261 48 76ft 8kts
14-Jun-17 10:36 37.369074 -121.931883 44 76ft 12kts
14-Jun-17 10:37 37.370624 -121.930491 47 76ft 0kts
14-Jun-17 10:38 37.370624 -121.930491 47 76ft 0kts

Navigation Log

Ident Type
Flight plan parsing failed, navigation log unavailable